Time;durP1;ratioP1;P1;durP2;ratioP2;P2;SDS_P1;SDS_P2;PMS_P1;PMS_P2;Temp;Humidity;BMP_temperature;BMP_pressure;BME280_temperature;BME280_humidity;BME280_pressure;Samples;Min_cycle;Max_cycle;Signal;HPM_P1;HPM_P2
2023/11/13 00:01:43;;;;;;;;;;;;;;;;;;5046275;27;89551;-62
2023/11/13 00:04:08;;;;;;;;;;;;;;;;;;5046637;27;90629;-63
2023/11/13 00:06:33;;;;;;;;;;;;;;;;;;5045796;27;89483;-63
2023/11/13 00:08:59;;;;;;;;;;;;;;;;;;5045306;27;89640;-63
2023/11/13 00:11:24;;;;;;;;;;;;;;;;;;5047786;27;90675;-63
2023/11/13 00:13:49;;;;;;;;;;;;;;;;;;5046510;27;89473;-63
2023/11/13 00:16:14;;;;;;;;;;;;;;;;;;5045621;27;90254;-63
2023/11/13 00:18:40;;;;;;;;;;;;;;;;;;5046178;27;90508;-63
2023/11/13 00:21:05;;;;;;;;;;;;;;;;;;5046094;27;89633;-63
2023/11/13 00:23:31;;;;;;;;;;;;;;;;;;5048221;27;90455;-63
2023/11/13 00:25:57;;;;;;;;;;;;;;;;;;5046016;27;90079;-62
2023/11/13 00:28:22;;;;;;;;;;;;;;;;;;5044229;27;89095;-62
2023/11/13 00:30:48;;;;;;;;;;;;;;;;;;5044326;27;89566;-62
2023/11/13 00:33:13;;;;;;;;;;;;;;;;;;5046175;27;90290;-62
2023/11/13 00:35:38;;;;;;;;;;;;;;;;;;5046452;27;89685;-63
2023/11/13 00:38:03;;;;;;;;;;;;;;;;;;5047003;27;89525;-61
2023/11/13 00:40:31;;;;;;;;;;;;;;;;;;5040104;27;89051;-62
2023/11/13 00:42:56;;;;;;;;;;;;;;;;;;5040829;27;90535;-63
2023/11/13 00:45:21;;;;;;;;;;;;;;;;;;5043555;27;89261;-61
2023/11/13 00:47:47;;;;;;;;;;;;;;;;;;5043590;27;89018;-63
2023/11/13 00:50:12;;;;;;;;;;;;;;;;;;5045330;27;90638;-62
2023/11/13 00:52:39;;;;;;;;;;;;;;;;;;5039501;27;89176;-62
2023/11/13 00:55:04;;;;;;;;;;;;;;;;;;5043352;27;89981;-61
2023/11/13 00:57:29;;;;;;;;;;;;;;;;;;5046345;27;89488;-62
2023/11/13 00:59:55;;;;;;;;;;;;;;;;;;5042092;27;90791;-62
2023/11/13 01:02:22;;;;;;;;;;;;;;;;;;5042708;27;89786;-62
2023/11/13 01:04:47;;;;;;;;;;;;;;;;;;5043781;27;90219;-62
2023/11/13 01:07:16;;;;;;;;;;;;;;;;;;5042651;27;90105;-62
2023/11/13 01:09:42;;;;;;;;;;;;;;;;;;5044759;27;90901;-62
2023/11/13 01:12:08;;;;;;;;;;;;;;;;;;5044151;27;90585;-62
2023/11/13 01:14:34;;;;;;;;;;;;;;;;;;5046331;27;89438;-62
2023/11/13 01:16:59;;;;;;;;;;;;;;;;;;5043551;27;90508;-62
2023/11/13 01:19:24;;;;;;;;;;;;;;;;;;5043656;27;89161;-62
2023/11/13 01:21:50;;;;;;;;;;;;;;;;;;5043822;27;90472;-62
2023/11/13 01:24:15;;;;;;;;;;;;;;;;;;5040250;27;89572;-62
2023/11/13 01:26:40;;;;;;;;;;;;;;;;;;5045216;27;89445;-62
2023/11/13 01:29:05;;;;;;;;;;;;;;;;;;5040906;27;90158;-61
2023/11/13 01:31:30;;;;;;;;;;;;;;;;;;5042161;27;89179;-61
2023/11/13 01:33:56;;;;;;;;;;;;;;;;;;5043351;27;89445;-62
2023/11/13 01:36:22;;;;;;;;;;;;;;;;;;5043683;27;89406;-61
2023/11/13 01:38:47;;;;;;;;;;;;;;;;;;5044201;27;88990;-62
2023/11/13 01:41:12;;;;;;;;;;;;;;;;;;5046520;27;89141;-62
2023/11/13 01:43:37;;;;;;;;;;;;;;;;;;5044935;27;89207;-62
2023/11/13 01:46:04;;;;;;;;;;;;;;;;;;5039887;27;89561;-62
2023/11/13 01:48:29;;;;;;;;;;;;;;;;;;5043264;27;89558;-62
2023/11/13 01:50:54;;;;;;;;;;;;;;;;;;5043306;27;89361;-62
2023/11/13 01:53:22;;;;;;;;;;;;;;;;;;5026820;27;90610;-62
2023/11/13 01:55:48;;;;;;;;;;;;;;;;;;5042233;27;89492;-62
2023/11/13 01:58:15;;;;;;;;;;;;;;;;;;5042174;27;89770;-62
2023/11/13 02:00:40;;;;;;;;;;;;;;;;;;5043718;27;89889;-62
2023/11/13 02:03:06;;;;;;;;;;;;;;;;;;5043996;27;89515;-63
2023/11/13 02:05:31;;;;;;;;;;;;;;;;;;5043948;27;89238;-63
2023/11/13 02:07:57;;;;;;;;;;;;;;;;;;5044466;27;90301;-62
2023/11/13 02:10:23;;;;;;;;;;;;;;;;;;5041680;27;89283;-62
2023/11/13 02:12:49;;;;;;;;;;;;;;;;;;5028201;27;89445;-63
2023/11/13 02:15:15;;;;;;;;;;;;;;;;;;5026651;28;90659;-63
2023/11/13 02:17:56;;;;;;;;;;;;;;;;;;5027071;27;89572;-62
2023/11/13 02:20:21;;;;;;;;;;;;;;;;;;5028580;27;89592;-63
2023/11/13 02:22:46;;;;;;;;;;;;;;;;;;5032658;27;89313;-63
2023/11/13 02:25:12;;;;;;;;;;;;;;;;;;5049430;27;89021;-62
2023/11/13 02:27:37;;;;;;;;;;;;;;;;;;5046732;27;89518;-62
2023/11/13 02:30:03;;;;;;;;;;;;;;;;;;5046504;27;89055;-62
2023/11/13 02:32:28;;;;;;;;;;;;;;;;;;5046965;27;89358;-61
2023/11/13 02:34:53;;;;;;;;;;;;;;;;;;5046399;27;89520;-61
2023/11/13 02:37:19;;;;;;;;;;;;;;;;;;5046412;27;89150;-61
2023/11/13 02:39:45;;;;;;;;;;;;;;;;;;5044460;27;89586;-62
2023/11/13 02:42:11;;;;;;;;;;;;;;;;;;5026417;27;89446;-62
2023/11/13 02:44:36;;;;;;;;;;;;;;;;;;5027974;28;89053;-63
2023/11/13 02:47:01;;;;;;;;;;;;;;;;;;5038797;27;89476;-63
2023/11/13 02:49:26;;;;;;;;;;;;;;;;;;5045894;27;89331;-61
2023/11/13 02:51:51;;;;;;;;;;;;;;;;;;5045970;27;89095;-61
2023/11/13 02:54:18;;;;;;;;;;;;;;;;;;5046176;27;89359;-61
2023/11/13 02:56:44;;;;;;;;;;;;;;;;;;5045735;27;89079;-61
2023/11/13 02:59:09;;;;;;;;;;;;;;;;;;5046578;27;88959;-62
2023/11/13 03:01:34;;;;;;;;;;;;;;;;;;5046456;27;89429;-62
2023/11/13 03:03:59;;;;;;;;;;;;;;;;;;5045998;27;89577;-61
2023/11/13 03:06:25;;;;;;;;;;;;;;;;;;5049477;27;89616;-61
2023/11/13 03:08:50;;;;;;;;;;;;;;;;;;5045509;27;89381;-62
2023/11/13 03:11:16;;;;;;;;;;;;;;;;;;5046114;27;88955;-62
2023/11/13 03:13:41;;;;;;;;;;;;;;;;;;5046381;27;89213;-62
2023/11/13 03:16:09;;;;;;;;;;;;;;;;;;5045737;27;89049;-62
2023/11/13 03:18:35;;;;;;;;;;;;;;;;;;5045896;27;89515;-62
2023/11/13 03:21:00;;;;;;;;;;;;;;;;;;5047097;27;89640;-61
2023/11/13 03:23:25;;;;;;;;;;;;;;;;;;5049290;27;90130;-62
2023/11/13 03:25:50;;;;;;;;;;;;;;;;;;5049798;27;88950;-62
2023/11/13 03:28:16;;;;;;;;;;;;;;;;;;5052204;27;89663;-62
2023/11/13 03:30:41;;;;;;;;;;;;;;;;;;5031364;27;90241;-62
2023/11/13 03:33:07;;;;;;;;;;;;;;;;;;5030230;27;89357;-62
2023/11/13 03:35:32;;;;;;;;;;;;;;;;;;5029317;28;90128;-63
2023/11/13 03:37:57;;;;;;;;;;;;;;;;;;5011782;28;90294;-62
2023/11/13 03:40:26;;;;;;;;;;;;;;;;;;5029737;28;90115;-63
2023/11/13 03:42:51;;;;;;;;;;;;;;;;;;5029442;27;89654;-61
2023/11/13 03:45:16;;;;;;;;;;;;;;;;;;5029635;27;88980;-62
2023/11/13 03:47:42;;;;;;;;;;;;;;;;;;5029307;28;89525;-62
2023/11/13 03:50:07;;;;;;;;;;;;;;;;;;5032084;28;90543;-62
2023/11/13 03:52:33;;;;;;;;;;;;;;;;;;5028973;28;89536;-63
2023/11/13 03:54:58;;;;;;;;;;;;;;;;;;5028457;28;89914;-62
2023/11/13 03:57:23;;;;;;;;;;;;;;;;;;5028436;28;89879;-62
2023/11/13 03:59:48;;;;;;;;;;;;;;;;;;5027934;28;89696;-62
2023/11/13 04:02:14;;;;;;;;;;;;;;;;;;5028674;28;89598;-62
2023/11/13 04:04:39;;;;;;;;;;;;;;;;;;5028713;28;89494;-63
2023/11/13 04:07:04;;;;;;;;;;;;;;;;;;5028268;28;90854;-63
2023/11/13 04:09:29;;;;;;;;;;;;;;;;;;5027731;28;89227;-63
2023/11/13 04:11:55;;;;;;;;;;;;;;;;;;5031437;28;89425;-63
2023/11/13 04:14:20;;;;;;;;;;;;;;;;;;5028122;28;90574;-62
2023/11/13 04:16:46;;;;;;;;;;;;;;;;;;5028468;28;89518;-63
2023/11/13 04:19:11;;;;;;;;;;;;;;;;;;5028503;28;89595;-62
2023/11/13 04:21:36;;;;;;;;;;;;;;;;;;5028212;28;89659;-63
2023/11/13 04:24:01;;;;;;;;;;;;;;;;;;5028617;28;89002;-63
2023/11/13 04:26:27;;;;;;;;;;;;;;;;;;5028273;28;89569;-63
2023/11/13 04:28:53;;;;;;;;;;;;;;;;;;5028384;28;90150;-63
2023/11/13 04:31:18;;;;;;;;;;;;;;;;;;5027688;28;89538;-61
2023/11/13 04:33:44;;;;;;;;;;;;;;;;;;5030961;28;89725;-62
2023/11/13 04:36:09;;;;;;;;;;;;;;;;;;5030788;27;89384;-62
2023/11/13 04:38:36;;;;;;;;;;;;;;;;;;5028176;28;89825;-62
2023/11/13 04:41:01;;;;;;;;;;;;;;;;;;5027198;28;90248;-62
2023/11/13 04:43:26;;;;;;;;;;;;;;;;;;5027884;28;88978;-62
2023/11/13 04:45:52;;;;;;;;;;;;;;;;;;5027776;28;89540;-62
2023/11/13 04:48:17;;;;;;;;;;;;;;;;;;5027571;28;89267;-63
2023/11/13 04:50:42;;;;;;;;;;;;;;;;;;5027872;28;89162;-63
2023/11/13 04:53:07;;;;;;;;;;;;;;;;;;5030540;28;89417;-62
2023/11/13 04:55:33;;;;;;;;;;;;;;;;;;5027726;28;89021;-63
2023/11/13 04:57:58;;;;;;;;;;;;;;;;;;5027537;28;90664;-62
2023/11/13 05:00:23;;;;;;;;;;;;;;;;;;5027466;28;90266;-61
2023/11/13 05:02:48;;;;;;;;;;;;;;;;;;5028324;28;89620;-61
2023/11/13 05:05:15;;;;;;;;;;;;;;;;;;5028612;28;89653;-61
2023/11/13 05:07:41;;;;;;;;;;;;;;;;;;5027141;28;89326;-62
2023/11/13 05:10:06;;;;;;;;;;;;;;;;;;5026781;28;89989;-61
2023/11/13 05:12:31;;;;;;;;;;;;;;;;;;5027383;28;90074;-61
2023/11/13 05:14:56;;;;;;;;;;;;;;;;;;5030866;28;89963;-62
2023/11/13 05:17:22;;;;;;;;;;;;;;;;;;5027594;28;89530;-62
2023/11/13 05:19:47;;;;;;;;;;;;;;;;;;5027471;28;89172;-62
2023/11/13 05:22:13;;;;;;;;;;;;;;;;;;5027224;28;89279;-62
2023/11/13 05:24:39;;;;;;;;;;;;;;;;;;5027081;28;89621;-62
2023/11/13 05:27:05;;;;;;;;;;;;;;;;;;5027099;28;89842;-63
2023/11/13 05:29:30;;;;;;;;;;;;;;;;;;5041337;27;89108;-62
2023/11/13 05:31:56;;;;;;;;;;;;;;;;;;5047106;27;89528;-62
2023/11/13 05:34:24;;;;;;;;;;;;;;;;;;5046678;27;89354;-62
2023/11/13 05:36:49;;;;;;;;;;;;;;;;;;5050196;27;89565;-62
2023/11/13 05:39:15;;;;;;;;;;;;;;;;;;5047378;27;89153;-62
2023/11/13 05:41:41;;;;;;;;;;;;;;;;;;5033571;27;89470;-62
2023/11/13 05:44:06;;;;;;;;;;;;;;;;;;5026431;28;89661;-63
2023/11/13 05:46:32;;;;;;;;;;;;;;;;;;5026678;28;90299;-62
2023/11/13 05:48:57;;;;;;;;;;;;;;;;;;5027413;28;88992;-62
2023/11/13 05:51:22;;;;;;;;;;;;;;;;;;5027032;28;90543;-62
2023/11/13 05:53:48;;;;;;;;;;;;;;;;;;5045141;27;90537;-63
2023/11/13 05:56:13;;;;;;;;;;;;;;;;;;5046916;27;89543;-62
2023/11/13 05:58:38;;;;;;;;;;;;;;;;;;5049775;27;90464;-63
2023/11/13 06:01:04;;;;;;;;;;;;;;;;;;5046740;27;89521;-63
2023/11/13 06:03:29;;;;;;;;;;;;;;;;;;5046781;27;90224;-63
2023/11/13 06:05:54;;;;;;;;;;;;;;;;;;5043943;27;90034;-63
2023/11/13 06:08:19;;;;;;;;;;;;;;;;;;5047189;27;90241;-63
2023/11/13 06:10:45;;;;;;;;;;;;;;;;;;5046355;27;90222;-63
2023/11/13 06:13:12;;;;;;;;;;;;;;;;;;5046543;27;90592;-63
2023/11/13 06:15:40;;;;;;;;;;;;;;;;;;5046888;27;89285;-62
2023/11/13 06:18:06;;;;;;;;;;;;;;;;;;5046909;27;89483;-62
2023/11/13 06:20:31;;;;;;;;;;;;;;;;;;5048249;27;89202;-63
2023/11/13 06:22:56;;;;;;;;;;;;;;;;;;5031926;27;90310;-63
2023/11/13 06:25:21;;;;;;;;;;;;;;;;;;5044018;27;89372;-63
2023/11/13 06:27:47;;;;;;;;;;;;;;;;;;5026931;27;90287;-63
2023/11/13 06:30:12;;;;;;;;;;;;;;;;;;5039544;27;89568;-62
2023/11/13 06:32:38;;;;;;;;;;;;;;;;;;5036102;27;90202;-62
2023/11/13 06:35:03;;;;;;;;;;;;;;;;;;5032645;27;89068;-61
2023/11/13 06:37:28;;;;;;;;;;;;;;;;;;5037413;27;89508;-61
2023/11/13 06:39:53;;;;;;;;;;;;;;;;;;5034987;27;89355;-63
2023/11/13 06:42:19;;;;;;;;;;;;;;;;;;5036131;27;89082;-63
2023/11/13 06:44:44;;;;;;;;;;;;;;;;;;5031274;27;90179;-62
2023/11/13 06:47:09;;;;;;;;;;;;;;;;;;5038269;27;89774;-63
2023/11/13 06:49:38;;;;;;;;;;;;;;;;;;5036209;27;90772;-62
2023/11/13 06:52:08;;;;;;;;;;;;;;;;;;5033561;27;90218;-61
2023/11/13 06:54:33;;;;;;;;;;;;;;;;;;5034928;27;89056;-61
2023/11/13 06:56:58;;;;;;;;;;;;;;;;;;5033406;27;89483;-61
2023/11/13 06:59:25;;;;;;;;;;;;;;;;;;5033753;27;89352;-63
2023/11/13 07:01:51;;;;;;;;;;;;;;;;;;5043543;27;90247;-63
2023/11/13 07:04:17;;;;;;;;;;;;;;;;;;5038991;27;89151;-62
2023/11/13 07:06:42;;;;;;;;;;;;;;;;;;5038259;27;89244;-62
2023/11/13 07:09:14;;;;;;;;;;;;;;;;;;5039410;27;89472;-62
2023/11/13 07:11:43;;;;;;;;;;;;;;;;;;5039509;27;89019;-62
2023/11/13 07:14:09;;;;;;;;;;;;;;;;;;5043726;27;89243;-63
2023/11/13 07:16:35;;;;;;;;;;;;;;;;;;5038947;27;89362;-61
2023/11/13 07:19:00;;;;;;;;;;;;;;;;;;5043945;27;90326;-61
2023/11/13 07:21:26;;;;;;;;;;;;;;;;;;5041890;27;89125;-61
2023/11/13 07:23:52;;;;;;;;;;;;;;;;;;5037806;27;92868;-62
2023/11/13 07:26:17;;;;;;;;;;;;;;;;;;5038226;27;91721;-61
2023/11/13 07:28:43;;;;;;;;;;;;;;;;;;5039371;27;89627;-66
2023/11/13 07:31:08;;;;;;;;;;;;;;;;;;5020614;28;90753;-62
2023/11/13 07:33:33;;;;;;;;;;;;;;;;;;5042224;27;89393;-63
2023/11/13 07:35:58;;;;;;;;;;;;;;;;;;5040956;27;89526;-61
2023/11/13 07:38:24;;;;;;;;;;;;;;;;;;5040024;27;89184;-62
2023/11/13 07:40:50;;;;;;;;;;;;;;;;;;5041604;27;90164;-64
2023/11/13 07:43:15;;;;;;;;;;;;;;;;;;5047276;27;90630;-63
2023/11/13 07:45:42;;;;;;;;;;;;;;;;;;5048634;27;91892;-63
2023/11/13 07:48:07;;;;;;;;;;;;;;;;;;5041575;27;90632;-62
2023/11/13 07:50:33;;;;;;;;;;;;;;;;;;5046255;27;89638;-64
2023/11/13 07:52:58;;;;;;;;;;;;;;;;;;5047654;27;89902;-63
2023/11/13 07:55:23;;;;;;;;;;;;;;;;;;5040008;27;89713;-63
2023/11/13 07:57:48;;;;;;;;;;;;;;;;;;5035311;27;89751;-63
2023/11/13 08:00:15;;;;;;;;;;;;;;;;;;5039460;27;89177;-63
2023/11/13 08:02:42;;;;;;;;;;;;;;;;;;5041054;27;89460;-62
2023/11/13 08:05:11;;;;;;;;;;;;;;;;;;5036817;27;90326;-63
2023/11/13 08:07:40;;;;;;;;;;;;;;;;;;5046926;27;89572;-64
2023/11/13 08:10:12;;;;;;;;;;;;;;;;;;5041130;27;89648;-63
2023/11/13 08:12:38;;;;;;;;;;;;;;;;;;5038508;27;89000;-65
2023/11/13 08:15:03;;;;;;;;;;;;;;;;;;5039026;27;89095;-64
2023/11/13 08:17:31;;;;;;;;;;;;;;;;;;5045392;27;90053;-64
2023/11/13 08:19:59;;;;;;;;;;;;;;;;;;5046494;27;89149;-64
2023/11/13 08:22:24;;;;;;;;;;;;;;;;;;5041611;27;90669;-63
2023/11/13 08:24:49;;;;;;;;;;;;;;;;;;5040987;27;90549;-65
2023/11/13 08:27:15;;;;;;;;;;;;;;;;;;5037744;27;89558;-62
2023/11/13 08:29:41;;;;;;;;;;;;;;;;;;5040617;27;90731;-63
2023/11/13 08:32:07;;;;;;;;;;;;;;;;;;5034344;27;89351;-63
2023/11/13 08:34:32;;;;;;;;;;;;;;;;;;5037765;27;89470;-63
2023/11/13 08:36:57;;;;;;;;;;;;;;;;;;5036185;27;89175;-63
2023/11/13 08:39:22;;;;;;;;;;;;;;;;;;5032042;27;89646;-63
2023/11/13 08:41:48;;;;;;;;;;;;;;;;;;5035599;27;90822;-63
2023/11/13 08:44:13;;;;;;;;;;;;;;;;;;5035860;27;89832;-63
2023/11/13 08:46:38;;;;;;;;;;;;;;;;;;5036685;27;89658;-63
2023/11/13 08:49:05;;;;;;;;;;;;;;;;;;5043097;27;89862;-63
2023/11/13 08:51:33;;;;;;;;;;;;;;;;;;5046741;27;91063;-61
2023/11/13 08:54:00;;;;;;;;;;;;;;;;;;5040584;27;89704;-61
2023/11/13 08:56:25;;;;;;;;;;;;;;;;;;5032518;27;90180;-62
2023/11/13 08:58:53;;;;;;;;;;;;;;;;;;5036611;27;89442;-61
2023/11/13 09:01:25;;;;;;;;;;;;;;;;;;5038707;27;90625;-61
2023/11/13 09:03:51;;;;;;;;;;;;;;;;;;5036230;27;90352;-61
2023/11/13 09:06:17;;;;;;;;;;;;;;;;;;5039798;27;89755;-62
2023/11/13 09:08:43;;;;;;;;;;;;;;;;;;5038387;27;89274;-62
2023/11/13 09:11:08;;;;;;;;;;;;;;;;;;5042124;27;90181;-62
2023/11/13 09:13:34;;;;;;;;;;;;;;;;;;5038910;27;89880;-61
2023/11/13 09:15:59;;;;;;;;;;;;;;;;;;5035473;27;89475;-64
2023/11/13 09:18:26;;;;;;;;;;;;;;;;;;5043362;27;89550;-62
2023/11/13 09:20:54;;;;;;;;;;;;;;;;;;5041294;27;90524;-62
2023/11/13 09:23:20;;;;;;;;;;;;;;;;;;5039188;27;90964;-61
2023/11/13 09:25:45;;;;;;;;;;;;;;;;;;5037792;27;89363;-61
2023/11/13 09:28:11;;;;;;;;;;;;;;;;;;5034540;27;92082;-61
2023/11/13 09:30:37;;;;;;;;;;;;;;;;;;5040306;27;90533;-62
2023/11/13 09:33:02;;;;;;;;;;;;;;;;;;5046574;27;90258;-62
2023/11/13 09:35:29;;;;;;;;;;;;;;;;;;5043695;27;89703;-61
2023/11/13 09:37:55;;;;;;;;;;;;;;;;;;5037733;27;89734;-61
2023/11/13 09:40:37;;;;;;;;;;;;;;;;;;5044124;27;89784;-62
2023/11/13 09:43:14;;;;;;;;;;;;;;;;;;5037536;27;90577;-62
2023/11/13 09:45:46;;;;;;;;;;;;;;;;;;5042001;27;89407;-61
2023/11/13 09:48:29;;;;;;;;;;;;;;;;;;5038469;27;89826;-62
2023/11/13 09:50:57;;;;;;;;;;;;;;;;;;5040875;27;89339;-62
2023/11/13 09:53:25;;;;;;;;;;;;;;;;;;5043603;27;89521;-61
2023/11/13 09:55:51;;;;;;;;;;;;;;;;;;5046326;27;90633;-62
2023/11/13 09:58:16;;;;;;;;;;;;;;;;;;5043747;27;89037;-62
2023/11/13 10:00:42;;;;;;;;;;;;;;;;;;5041983;27;89430;-62
2023/11/13 10:03:10;;;;;;;;;;;;;;;;;;5043166;27;89390;-62
2023/11/13 10:05:38;;;;;;;;;;;;;;;;;;5038327;27;90466;-62
2023/11/13 10:08:04;;;;;;;;;;;;;;;;;;5039554;27;90869;-62
2023/11/13 10:10:29;;;;;;;;;;;;;;;;;;5039660;27;89739;-62
2023/11/13 10:13:00;;;;;;;;;;;;;;;;;;5034251;27;89081;-62
2023/11/13 10:15:27;;;;;;;;;;;;;;;;;;5034879;27;90780;-62
2023/11/13 10:17:56;;;;;;;;;;;;;;;;;;5038207;27;90637;-62
2023/11/13 10:20:22;;;;;;;;;;;;;;;;;;5037497;27;90855;-61
2023/11/13 10:23:03;;;;;;;;;;;;;;;;;;5039394;27;89192;-61
2023/11/13 10:25:40;;;;;;;;;;;;;;;;;;5046866;27;88969;-61
2023/11/13 10:28:08;;;;;;;;;;;;;;;;;;5039109;27;90625;-62
2023/11/13 10:30:34;;;;;;;;;;;;;;;;;;5038212;27;89854;-62
2023/11/13 10:33:11;;;;;;;;;;;;;;;;;;5035473;27;89549;-61
2023/11/13 10:35:38;;;;;;;;;;;;;;;;;;5038329;27;89709;-64
2023/11/13 10:38:03;;;;;;;;;;;;;;;;;;5037778;27;89326;-62
2023/11/13 10:40:29;;;;;;;;;;;;;;;;;;5038300;27;92405;-62
2023/11/13 10:42:55;;;;;;;;;;;;;;;;;;5032513;27;90580;-62
2023/11/13 10:45:20;;;;;;;;;;;;;;;;;;5023420;27;90765;-62
2023/11/13 10:47:49;;;;;;;;;;;;;;;;;;5036362;27;90083;-62
2023/11/13 10:50:19;;;;;;;;;;;;;;;;;;5042222;27;89007;-62
2023/11/13 10:52:45;;;;;;;;;;;;;;;;;;5036922;27;90334;-62
2023/11/13 10:55:11;;;;;;;;;;;;;;;;;;5039337;27;89473;-62
2023/11/13 10:57:39;;;;;;;;;;;;;;;;;;5021656;27;90610;-63
2023/11/13 11:00:05;;;;;;;;;;;;;;;;;;5017355;27;89188;-62
2023/11/13 11:02:32;;;;;;;;;;;;;;;;;;5033980;27;89877;-63
2023/11/13 11:04:59;;;;;;;;;;;;;;;;;;5034987;27;89419;-62
2023/11/13 11:07:26;;;;;;;;;;;;;;;;;;5043105;27;89806;-62
2023/11/13 11:10:00;;;;;;;;;;;;;;;;;;5034400;27;90329;-61
2023/11/13 11:12:46;;;;;;;;;;;;;;;;;;5033841;27;90010;-61
2023/11/13 11:15:29;;;;;;;;;;;;;;;;;;5037884;27;90608;-63
2023/11/13 11:18:05;;;;;;;;;;;;;;;;;;5035995;27;89829;-61
2023/11/13 11:20:36;;;;;;;;;;;;;;;;;;5038230;27;90243;-66
2023/11/13 11:23:01;;;;;;;;;;;;;;;;;;5043945;27;89621;-61
2023/11/13 11:25:32;;;;;;;;;;;;;;;;;;5033146;27;89155;-61
2023/11/13 11:27:57;;;;;;;;;;;;;;;;;;5038947;27;89538;-61
2023/11/13 11:30:23;;;;;;;;;;;;;;;;;;5038122;27;89094;-62
2023/11/13 11:33:09;;;;;;;;;;;;;;;;;;5030231;27;89474;-61
2023/11/13 11:35:37;;;;;;;;;;;;;;;;;;5033146;27;91339;-62
2023/11/13 11:38:22;;;;;;;;;;;;;;;;;;5032328;27;89298;-62
2023/11/13 11:40:48;;;;;;;;;;;;;;;;;;5034488;27;89322;-62
2023/11/13 11:43:27;;;;;;;;;;;;;;;;;;5037061;27;90695;-61
2023/11/13 11:45:53;;;;;;;;;;;;;;;;;;5045039;27;89993;-61
2023/11/13 11:48:18;;;;;;;;;;;;;;;;;;5039770;27;90500;-62
2023/11/13 11:50:45;;;;;;;;;;;;;;;;;;5035585;27;89455;-62
2023/11/13 11:53:16;;;;;;;;;;;;;;;;;;5038153;27;89119;-62
2023/11/13 11:55:41;;;;;;;;;;;;;;;;;;5034140;27;89671;-62
2023/11/13 11:58:06;;;;;;;;;;;;;;;;;;5041901;27;89262;-61
2023/11/13 12:00:33;;;;;;;;;;;;;;;;;;5033090;27;89435;-61
2023/11/13 12:02:58;;;;;;;;;;;;;;;;;;5044734;27;90069;-61
2023/11/13 12:05:23;;;;;;;;;;;;;;;;;;5042053;27;90006;-62
2023/11/13 12:07:50;;;;;;;;;;;;;;;;;;5048766;27;89813;-62
2023/11/13 12:10:20;;;;;;;;;;;;;;;;;;5044527;27;89415;-61
2023/11/13 12:12:46;;;;;;;;;;;;;;;;;;5043798;27;89434;-62
2023/11/13 12:15:11;;;;;;;;;;;;;;;;;;5040552;27;90026;-64
2023/11/13 12:17:38;;;;;;;;;;;;;;;;;;5045246;27;89735;-62
2023/11/13 12:20:09;;;;;;;;;;;;;;;;;;5039140;27;89397;-63
2023/11/13 12:22:34;;;;;;;;;;;;;;;;;;5041501;27;89510;-63
2023/11/13 12:25:00;;;;;;;;;;;;;;;;;;5042510;27;89428;-63
2023/11/13 12:27:25;;;;;;;;;;;;;;;;;;5042885;27;89670;-63
2023/11/13 12:30:01;;;;;;;;;;;;;;;;;;5044610;27;89569;-63
2023/11/13 12:32:29;;;;;;;;;;;;;;;;;;5041646;27;90329;-68
2023/11/13 12:34:55;;;;;;;;;;;;;;;;;;5043540;27;89711;-62
2023/11/13 12:37:21;;;;;;;;;;;;;;;;;;5037925;27;89598;-61
2023/11/13 12:39:46;;;;;;;;;;;;;;;;;;5045496;27;90433;-61
2023/11/13 12:42:12;;;;;;;;;;;;;;;;;;5044014;27;89188;-62
2023/11/13 12:44:38;;;;;;;;;;;;;;;;;;5043943;27;90022;-61
2023/11/13 12:47:05;;;;;;;;;;;;;;;;;;5036550;27;90057;-61
2023/11/13 12:49:30;;;;;;;;;;;;;;;;;;5035643;27;91029;-61
2023/11/13 12:51:56;;;;;;;;;;;;;;;;;;5043789;27;89617;-62
2023/11/13 12:54:21;;;;;;;;;;;;;;;;;;5037042;27;89399;-62
2023/11/13 12:56:47;;;;;;;;;;;;;;;;;;5041497;27;90114;-61
2023/11/13 12:59:15;;;;;;;;;;;;;;;;;;5042729;27;89471;-62
2023/11/13 13:01:41;;;;;;;;;;;;;;;;;;5039866;27;90590;-62
2023/11/13 13:04:07;;;;;;;;;;;;;;;;;;5040890;27;90387;-61
2023/11/13 13:06:38;;;;;;;;;;;;;;;;;;5041418;27;89047;-61
2023/11/13 13:09:05;;;;;;;;;;;;;;;;;;5042384;27;90593;-62
2023/11/13 13:11:33;;;;;;;;;;;;;;;;;;5045204;27;90274;-62
2023/11/13 13:14:01;;;;;;;;;;;;;;;;;;5040067;27;90604;-62
2023/11/13 13:16:27;;;;;;;;;;;;;;;;;;5042356;27;90595;-62
2023/11/13 13:18:53;;;;;;;;;;;;;;;;;;5043576;27;89604;-61
2023/11/13 13:21:21;;;;;;;;;;;;;;;;;;5038743;27;89568;-61
2023/11/13 13:23:47;;;;;;;;;;;;;;;;;;5044153;27;90540;-60
2023/11/13 13:26:12;;;;;;;;;;;;;;;;;;5034560;27;90030;-63
2023/11/13 13:28:38;;;;;;;;;;;;;;;;;;5044658;27;90611;-61
2023/11/13 13:31:05;;;;;;;;;;;;;;;;;;5043016;27;89689;-62
2023/11/13 13:33:30;;;;;;;;;;;;;;;;;;5036781;27;90111;-62
2023/11/13 13:35:55;;;;;;;;;;;;;;;;;;5039453;27;90120;-62
2023/11/13 13:38:20;;;;;;;;;;;;;;;;;;5044458;27;88949;-63
2023/11/13 13:40:46;;;;;;;;;;;;;;;;;;5037370;27;89720;-62
2023/11/13 13:43:11;;;;;;;;;;;;;;;;;;5038095;27;89490;-62
2023/11/13 13:45:40;;;;;;;;;;;;;;;;;;5043101;27;89893;-61
2023/11/13 13:48:06;;;;;;;;;;;;;;;;;;5038987;27;89693;-61
2023/11/13 13:50:32;;;;;;;;;;;;;;;;;;5042349;27;89807;-62
2023/11/13 13:53:00;;;;;;;;;;;;;;;;;;5040593;27;90271;-61
2023/11/13 13:55:27;;;;;;;;;;;;;;;;;;5045843;27;90619;-61
2023/11/13 13:57:52;;;;;;;;;;;;;;;;;;5036418;27;90260;-62
2023/11/13 14:00:28;;;;;;;;;;;;;;;;;;5040910;27;90539;-62
2023/11/13 14:02:55;;;;;;;;;;;;;;;;;;5040044;27;90140;-62
2023/11/13 14:05:21;;;;;;;;;;;;;;;;;;5039065;27;89594;-61
2023/11/13 14:07:47;;;;;;;;;;;;;;;;;;5038748;27;90641;-61
2023/11/13 14:10:13;;;;;;;;;;;;;;;;;;5039474;27;90299;-61
2023/11/13 14:12:38;;;;;;;;;;;;;;;;;;5041367;27;90904;-61
2023/11/13 14:15:04;;;;;;;;;;;;;;;;;;5042687;27;90920;-61
2023/11/13 14:17:30;;;;;;;;;;;;;;;;;;5045094;27;90212;-61
2023/11/13 14:19:56;;;;;;;;;;;;;;;;;;5037608;27;92122;-62
2023/11/13 14:22:22;;;;;;;;;;;;;;;;;;5041841;27;90229;-62
2023/11/13 14:24:47;;;;;;;;;;;;;;;;;;5039603;27;89891;-61
2023/11/13 14:27:12;;;;;;;;;;;;;;;;;;5040886;27;89518;-62
2023/11/13 14:29:38;;;;;;;;;;;;;;;;;;5037909;27;89463;-62
2023/11/13 14:32:04;;;;;;;;;;;;;;;;;;5042283;27;89291;-70
2023/11/13 14:34:31;;;;;;;;;;;;;;;;;;5038345;27;90697;-62
2023/11/13 14:36:57;;;;;;;;;;;;;;;;;;5035238;27;90223;-61
2023/11/13 14:39:22;;;;;;;;;;;;;;;;;;5042413;27;89985;-61
2023/11/13 14:41:47;;;;;;;;;;;;;;;;;;5040109;27;90286;-62
2023/11/13 14:44:12;;;;;;;;;;;;;;;;;;5042044;27;89759;-62
2023/11/13 14:46:38;;;;;;;;;;;;;;;;;;5042823;27;90087;-61
2023/11/13 14:49:03;;;;;;;;;;;;;;;;;;5041991;27;90428;-62
2023/11/13 14:51:29;;;;;;;;;;;;;;;;;;5039521;27;89114;-62
2023/11/13 14:53:54;;;;;;;;;;;;;;;;;;5041772;27;89431;-61
2023/11/13 14:56:20;;;;;;;;;;;;;;;;;;5043522;27;89715;-62
2023/11/13 14:58:45;;;;;;;;;;;;;;;;;;5038835;27;89302;-62
2023/11/13 15:01:11;;;;;;;;;;;;;;;;;;5045582;27;89838;-61
2023/11/13 15:03:36;;;;;;;;;;;;;;;;;;5039051;27;89268;-62
2023/11/13 15:06:03;;;;;;;;;;;;;;;;;;5038222;27;89621;-62
2023/11/13 15:08:29;;;;;;;;;;;;;;;;;;5040673;27;90365;-62
2023/11/13 15:10:55;;;;;;;;;;;;;;;;;;5043070;27;90178;-61
2023/11/13 15:13:20;;;;;;;;;;;;;;;;;;5042649;27;90652;-61
2023/11/13 15:15:47;;;;;;;;;;;;;;;;;;5041941;27;89982;-61
2023/11/13 15:18:12;;;;;;;;;;;;;;;;;;5043654;27;90111;-62
2023/11/13 15:20:40;;;;;;;;;;;;;;;;;;5046323;27;89470;-61
2023/11/13 15:23:07;;;;;;;;;;;;;;;;;;5044463;27;90059;-62
2023/11/13 15:25:32;;;;;;;;;;;;;;;;;;5043623;27;90661;-61
2023/11/13 15:27:58;;;;;;;;;;;;;;;;;;5044083;27;90125;-62
2023/11/13 15:30:23;;;;;;;;;;;;;;;;;;5040882;27;89122;-62
2023/11/13 15:32:49;;;;;;;;;;;;;;;;;;5044150;27;89030;-61
2023/11/13 15:35:15;;;;;;;;;;;;;;;;;;5037084;27;90529;-61
2023/11/13 15:37:41;;;;;;;;;;;;;;;;;;5040419;27;90362;-61
2023/11/13 15:40:06;;;;;;;;;;;;;;;;;;5037341;27;91211;-61
2023/11/13 15:42:32;;;;;;;;;;;;;;;;;;5046073;27;91107;-62
2023/11/13 15:44:57;;;;;;;;;;;;;;;;;;5039473;27;90823;-61
2023/11/13 15:47:23;;;;;;;;;;;;;;;;;;5047660;27;89767;-62
2023/11/13 15:49:48;;;;;;;;;;;;;;;;;;5042199;27;90457;-62
2023/11/13 15:52:15;;;;;;;;;;;;;;;;;;5044192;27;89565;-62
2023/11/13 15:54:40;;;;;;;;;;;;;;;;;;5039106;27;90430;-62
2023/11/13 15:57:06;;;;;;;;;;;;;;;;;;5038333;27;90248;-62
2023/11/13 15:59:31;;;;;;;;;;;;;;;;;;5043585;27;89758;-62
2023/11/13 16:01:57;;;;;;;;;;;;;;;;;;5042332;27;89514;-61
2023/11/13 16:04:22;;;;;;;;;;;;;;;;;;5047630;27;89738;-62
2023/11/13 16:06:48;;;;;;;;;;;;;;;;;;5042550;27;89508;-62
2023/11/13 16:09:13;;;;;;;;;;;;;;;;;;5045247;27;89002;-62
2023/11/13 16:11:39;;;;;;;;;;;;;;;;;;5029657;27;90792;-62
2023/11/13 16:14:04;;;;;;;;;;;;;;;;;;5043714;27;90216;-62
2023/11/13 16:16:30;;;;;;;;;;;;;;;;;;5045000;27;89083;-61
2023/11/13 16:18:55;;;;;;;;;;;;;;;;;;5042203;27;90832;-62
2023/11/13 16:21:20;;;;;;;;;;;;;;;;;;5043073;27;89770;-62
2023/11/13 16:23:45;;;;;;;;;;;;;;;;;;5023188;27;90480;-62
2023/11/13 16:26:11;;;;;;;;;;;;;;;;;;5045591;27;89577;-62
2023/11/13 16:28:37;;;;;;;;;;;;;;;;;;5031999;27;89185;-61
2023/11/13 16:31:02;;;;;;;;;;;;;;;;;;5039068;27;90075;-62
2023/11/13 16:33:27;;;;;;;;;;;;;;;;;;5045028;27;90234;-62
2023/11/13 16:35:53;;;;;;;;;;;;;;;;;;5038815;27;90258;-62
2023/11/13 16:38:18;;;;;;;;;;;;;;;;;;5038279;27;89730;-65
2023/11/13 16:40:46;;;;;;;;;;;;;;;;;;5036228;27;90128;-61